Menahga, MN

2:59 AM CST on November 28, 2014 (GMT -0600)
KMNMENAH2 | Change Station
CLOSE
Current Station
Personal Weather Station
Location: Pleasant Ridge Resort, MN
Elevation: 1394 ft
Nearby Weather Stations
Active Advisory: Winter Weather Advisory

Elev 1394 ft 46.83 °N, 94.88 °W | Updated 6 seconds ago

Overcast
Overcast
8.2 °F
Feels Like 8 °F
N
2.0
Wind Variable Wind from West
Gusts 6.0 mph

Today
High -- | Low -- °F
--% Chance of Precip.
Yesterday
High -- | Low -- °F
Precip. -- in
7:40 AM 4:35 PM
Waxing Crescent, 38% visible
Pressure 30.13 in
Visibility 10.0 miles
Clouds Mostly Cloudy 2800 ft
Overcast 3500 ft
Windchill 8 °F
Dew Point 0 °F
Humidity 69%
Rainfall 0.00 in
Snow Depth Not available.
UV 0 out of 12
Pollen .10 out of 12
Air Quality Not available.
Flu Activity Not available.
METAR KPKD 280853Z AUTO 12007KT 10SM BKN028 OVC035 M14/M17 A3002 RMK AO2 SNE0755 SLP203 P0000 60000 T11391167 56034

More Conditions Fewer Conditions

Pressure 30.13 in
Visibility 10.0 miles
Clouds Mostly Cloudy 2800 ft
Overcast 3500 ft
Windchill 8 °F
Dew Point 0 °F
Humidity 69%
Rainfall 0.00 in
Snow Depth Not available.
UV 0 out of 12
Pollen .10 out of 12
Air Quality Not available.
Flu Activity Not available.
METAR KPKD 280853Z AUTO 12007KT 10SM BKN028 OVC035 M14/M17 A3002 RMK AO2 SNE0755 SLP203 P0000 60000 T11391167 56034

More Conditions Fewer Conditions

10-Day Weather Forecast

Almanac

Astronomy

Nov. 28, 2014 Rise Set
Actual Time
Civil Twilight
Nautical Twilight
Astronomical Twilight
Moon
Length of Visible Light
Length of Day
Tomorrow will be .
, % of the Moon is Illuminated

Today's Extremes

State Highs State Lows

Community

WunderPhotos

Upload Photos

1,774,190 photos uploaded!

WunderBlogs® & News

Nearby

Air Quality

  Air Quality AQ Index Pollutant
Not available.

Snow Depth

Station Depth Elevation

Earthquake Activity

City Distance Mag. Time & Date
Minimum magnitude displayed is 2.5.

Coastal Water Temperatures

Place Temperature

Nearby Weather Stations